Terminal Aerodrome Forecast
Issued by NWS

Home | Current Version | Previous Version | Text Only | Print | Product List | Glossary Off
Versions: 1 2 3 4 5 6 7 8 9 10 11 12 13 14 15 16 17 18 19 20 21 22 23 24 25 26

495
FTUS43 KLOT 202119 AAB
TAFDPA
TAF AMD
KDPA 202119Z 2021/2118 27011KT P6SM SCT025 BKN035
     FM202315 03008KT P6SM BKN040
     FM210000 04005KT P6SM BKN050
     FM211500 12005KT P6SM BKN100=

USA.gov is the U.S. government's official web portal to all federal, state and local government web resources and services.